Gordon Reid — CGBR — position and weather

sailwx.info

Track history (hours):
 
Tides and Currents Weather Stations Pressure Air Temp Water Temp Dewpoint Dewpoint Depression Visibility Wind Speed Wind Dir Waves Ship Positions

Gordon Reid

Last reported at 2015-Feb-01 14:10 UTC. Time now 2015-Feb-01 14:45 UTC.
Position N 48°39' W 123°27'.

Length 49.95 m; beam 11 m; draft 5.4 m.

Type: SAR. MMSI: 316094000.

Date/timePositionNaut miles runAvg speedWind from/ knotsBaromVisibWave heightAir tempDewpointWater temp
2015-Feb-01 14:10N 48°39' W 123°27'0 0.0
2015-Feb-01 13:31N 48°39' W 123°27'0 0.0
2015-Feb-01 10:10N 48°39' W 123°27'0 0.0
2015-Feb-01 03:23N 48°39' W 123°27'0 0.0
2015-Jan-31 23:14N 48°39' W 123°27'0 0.0
2015-Jan-31 21:14N 48°39' W 123°27'0 0.0
2015-Jan-31 02:28N 48°39' W 123°27'0 0.0
2015-Jan-31 01:16N 48°39' W 123°27'0 0.0
2015-Jan-30 23:22N 48°39' W 123°27'0 0.0
2015-Jan-30 21:28N 48°39' W 123°27'0 0.0
2015-Jan-30 18:04N 48°39' W 123°27'0 0.0
2015-Jan-30 16:16N 48°39' W 123°27'0 0.0
2015-Jan-30 15:16N 48°39' W 123°27'0 0.0
2015-Jan-30 14:28N 48°39' W 123°27'0 0.0
2015-Jan-30 13:04N 48°39' W 123°27'0 0.0
2015-Jan-30 12:28N 48°39' W 123°27'0 0.0
2015-Jan-30 11:10N 48°39' W 123°27'0 0.0
2015-Jan-30 10:22N 48°39' W 123°27'0 0.0
2015-Jan-30 09:10N 48°39' W 123°27'0 0.0
2015-Jan-30 08:28N 48°39' W 123°27'0 0.0
2015-Jan-30 07:22N 48°39' W 123°27'0 0.0
2015-Jan-30 06:22N 48°39' W 123°27'0 0.0
2015-Jan-30 01:10N 48°39' W 123°27'0 0.0
2015-Jan-29 18:22N 48°39' W 123°27'0 0.0
2015-Jan-29 12:08N 48°39' W 123°27'0 0.0
2015-Jan-28 20:20N 48°39' W 123°27'0 0.0
2015-Jan-28 15:32N 48°39' W 123°27'0 0.0
2015-Jan-28 11:04N 48°39' W 123°27'0 0.0
2015-Jan-28 10:26N 48°39' W 123°27'0 0.0
2015-Jan-28 07:28N 48°39' W 123°27'0 0.0
2015-Jan-28 05:11N 48°39' W 123°27'0 0.0
2015-Jan-28 03:10N 48°39' W 123°27'0 0.0
2015-Jan-27 22:28N 48°39' W 123°27'0 0.0
2015-Jan-27 21:10N 48°39' W 123°27'0 0.0
2015-Jan-27 19:32N 48°39' W 123°27'0 0.0
2015-Jan-27 18:22N 48°39' W 123°27'0 0.0
2015-Jan-27 17:31N 48°39' W 123°27'0 0.0
2015-Jan-27 16:31N 48°39' W 123°27'0 0.0
2015-Jan-27 15:31N 48°39' W 123°27'0 0.0
2015-Jan-27 14:31N 48°39' W 123°27'0 0.0
2015-Jan-27 13:31N 48°39' W 123°27'0 0.0
2015-Jan-27 12:31N 48°39' W 123°27'0 0.0
2015-Jan-27 11:31N 48°39' W 123°27'0 0.0
2015-Jan-27 10:31N 48°39' W 123°27'0 0.0
2015-Jan-27 09:31N 48°39' W 123°27'0 0.0
2015-Jan-27 08:31N 48°39' W 123°27'0 0.0
2015-Jan-27 07:31N 48°39' W 123°27'0 0.0
2015-Jan-27 06:31N 48°39' W 123°27'0 0.0
2015-Jan-27 05:31N 48°39' W 123°27'0 0.0
2015-Jan-27 04:31N 48°39' W 123°27'0 0.0
2015-Jan-27 03:31N 48°39' W 123°27'0 0.0
2015-Jan-27 02:31N 48°39' W 123°27'0 0.0
2015-Jan-27 01:31N 48°39' W 123°27'0 0.0
2015-Jan-27 00:28N 48°39' W 123°27'0 0.0
2015-Jan-26 23:31N 48°39' W 123°27'0 0.0
2015-Jan-26 22:31N 48°39' W 123°27'0 0.0
2015-Jan-26 21:28N 48°39' W 123°27'0 0.0
2015-Jan-26 20:31N 48°39' W 123°27'0 0.0
2015-Jan-26 19:31N 48°39' W 123°27'0 0.0
2015-Jan-26 16:22N 48°39' W 123°27'0 0.0
2015-Jan-26 15:24N 48°39' W 123°27'0 0.0
2015-Jan-26 13:30N 48°39' W 123°27'0 0.0
2015-Jan-26 09:30N 48°39' W 123°27'0 0.0
2015-Jan-26 08:06N 48°39' W 123°27'0 0.0
2015-Jan-26 07:18N 48°39' W 123°27'0 0.0
2015-Jan-26 06:30N 48°39' W 123°27'0 0.0
2015-Jan-26 02:06N 48°39' W 123°27'0 0.0
2015-Jan-25 21:06N 48°39' W 123°27'0 0.0
2015-Jan-25 20:12N 48°39' W 123°27'0 0.0
2015-Jan-25 19:24N 48°39' W 123°27'0 0.0
2015-Jan-25 18:24N 48°39' W 123°27'0 0.0
2015-Jan-25 17:18N 48°39' W 123°27'0 0.0
2015-Jan-25 16:33N 48°39' W 123°27'7 6.4
2015-Jan-25 15:30N 48°45' W 123°22'7 7.5
2015-Jan-25 14:33N 48°52' W 123°19'8 8.4
2015-Jan-25 13:33N 48°59' W 123°25'9 8.7
2015-Jan-25 12:32N 49°06' W 123°33'8 8.6
2015-Jan-25 11:33N 49°12' W 123°42'8 8.3
2015-Jan-25 10:32N 49°16' W 123°53'8 8.5
2015-Jan-25 09:33N 49°19' W 124°05'9 8.8
2015-Jan-25 08:33N 49°23' W 124°17'8 7.5
2015-Jan-25 07:33N 49°28' W 124°26'7 6.4
2015-Jan-25 06:28N 49°33' W 124°34'7 7.1
2015-Jan-25 05:31N 49°38' W 124°41'7 7.0
2015-Jan-25 04:33N 49°43' W 124°48'80 9.6
2015-Jan-24 20:15N 50°30' W 126°28'15 8.4
2015-Jan-24 18:27N 50°38' W 126°48'1010.6
2015-Jan-24 17:28N 50°43' W 127°02'1410.7
2015-Jan-24 16:11N 50°46' W 127°24'4 0.7
2015-Jan-24 10:22N 50°44' W 127°29'0 0.0
2015-Jan-24 06:07N 50°44' W 127°29'0 0.0
2015-Jan-24 03:31N 50°44' W 127°29'8 8.0
2015-Jan-24 02:33N 50°49' W 127°38'9 9.2
2015-Jan-24 01:33N 50°54' W 127°50'7 6.8
2015-Jan-24 00:33N 51°00' W 127°47'1111.1
2015-Jan-23 23:33N 51°11' W 127°50'10 9.0
2015-Jan-23 22:24N 51°18' W 127°38'1 0.2
2015-Jan-23 17:23N 51°17' W 127°37'0 0.0
2015-Jan-23 13:29N 51°17' W 127°37'0 0.0
2015-Jan-23 12:05N 51°17' W 127°37'0 0.0
2015-Jan-23 09:05N 51°17' W 127°37'0 0.0
2015-Jan-23 08:17N 51°17' W 127°37'0 0.0
2015-Jan-22 22:11N 51°17' W 127°37'  
Track history (hours):
 
Tides and Currents Weather Stations Pressure Air Temp Water Temp Dewpoint Dewpoint Depression Visibility Wind Speed Wind Dir Waves Ship Positions

Gordon Reid

Last reported at 2015-Feb-01 14:10 UTC. Time now 2015-Feb-01 14:45 UTC.
Position N 48°39' W 123°27'.

Length 49.95 m; beam 11 m; draft 5.4 m.

Type: SAR. MMSI: 316094000.

Date/timePositionNaut miles runAvg speedWind from/ knotsBaromVisibWave heightAir tempDewpointWater temp
2015-Feb-01 14:10N 48°39' W 123°27'0 0.0
2015-Feb-01 13:31N 48°39' W 123°27'0 0.0
2015-Feb-01 10:10N 48°39' W 123°27'0 0.0
2015-Feb-01 03:23N 48°39' W 123°27'0 0.0
2015-Jan-31 23:14N 48°39' W 123°27'0 0.0
2015-Jan-31 21:14N 48°39' W 123°27'0 0.0
2015-Jan-31 02:28N 48°39' W 123°27'0 0.0
2015-Jan-31 01:16N 48°39' W 123°27'0 0.0
2015-Jan-30 23:22N 48°39' W 123°27'0 0.0
2015-Jan-30 21:28N 48°39' W 123°27'0 0.0
2015-Jan-30 18:04N 48°39' W 123°27'0 0.0
2015-Jan-30 16:16N 48°39' W 123°27'0 0.0
2015-Jan-30 15:16N 48°39' W 123°27'0 0.0
2015-Jan-30 14:28N 48°39' W 123°27'0 0.0
2015-Jan-30 13:04N 48°39' W 123°27'0 0.0
2015-Jan-30 12:28N 48°39' W 123°27'0 0.0
2015-Jan-30 11:10N 48°39' W 123°27'0 0.0
2015-Jan-30 10:22N 48°39' W 123°27'0 0.0
2015-Jan-30 09:10N 48°39' W 123°27'0 0.0
2015-Jan-30 08:28N 48°39' W 123°27'0 0.0
2015-Jan-30 07:22N 48°39' W 123°27'0 0.0
2015-Jan-30 06:22N 48°39' W 123°27'0 0.0
2015-Jan-30 01:10N 48°39' W 123°27'0 0.0
2015-Jan-29 18:22N 48°39' W 123°27'0 0.0
2015-Jan-29 12:08N 48°39' W 123°27'0 0.0
2015-Jan-28 20:20N 48°39' W 123°27'0 0.0
2015-Jan-28 15:32N 48°39' W 123°27'0 0.0
2015-Jan-28 11:04N 48°39' W 123°27'0 0.0
2015-Jan-28 10:26N 48°39' W 123°27'0 0.0
2015-Jan-28 07:28N 48°39' W 123°27'0 0.0
2015-Jan-28 05:11N 48°39' W 123°27'0 0.0
2015-Jan-28 03:10N 48°39' W 123°27'0 0.0
2015-Jan-27 22:28N 48°39' W 123°27'0 0.0
2015-Jan-27 21:10N 48°39' W 123°27'0 0.0
2015-Jan-27 19:32N 48°39' W 123°27'0 0.0
2015-Jan-27 18:22N 48°39' W 123°27'0 0.0
2015-Jan-27 17:31N 48°39' W 123°27'0 0.0
2015-Jan-27 16:31N 48°39' W 123°27'0 0.0
2015-Jan-27 15:31N 48°39' W 123°27'0 0.0
2015-Jan-27 14:31N 48°39' W 123°27'0 0.0
2015-Jan-27 13:31N 48°39' W 123°27'0 0.0
2015-Jan-27 12:31N 48°39' W 123°27'0 0.0
2015-Jan-27 11:31N 48°39' W 123°27'0 0.0
2015-Jan-27 10:31N 48°39' W 123°27'0 0.0
2015-Jan-27 09:31N 48°39' W 123°27'0 0.0
2015-Jan-27 08:31N 48°39' W 123°27'0 0.0
2015-Jan-27 07:31N 48°39' W 123°27'0 0.0
2015-Jan-27 06:31N 48°39' W 123°27'0 0.0
2015-Jan-27 05:31N 48°39' W 123°27'0 0.0
2015-Jan-27 04:31N 48°39' W 123°27'0 0.0
2015-Jan-27 03:31N 48°39' W 123°27'0 0.0
2015-Jan-27 02:31N 48°39' W 123°27'0 0.0
2015-Jan-27 01:31N 48°39' W 123°27'0 0.0
2015-Jan-27 00:28N 48°39' W 123°27'0 0.0
2015-Jan-26 23:31N 48°39' W 123°27'0 0.0
2015-Jan-26 22:31N 48°39' W 123°27'0 0.0
2015-Jan-26 21:28N 48°39' W 123°27'0 0.0
2015-Jan-26 20:31N 48°39' W 123°27'0 0.0
2015-Jan-26 19:31N 48°39' W 123°27'0 0.0
2015-Jan-26 16:22N 48°39' W 123°27'0 0.0
2015-Jan-26 15:24N 48°39' W 123°27'0 0.0
2015-Jan-26 13:30N 48°39' W 123°27'0 0.0
2015-Jan-26 09:30N 48°39' W 123°27'0 0.0
2015-Jan-26 08:06N 48°39' W 123°27'0 0.0
2015-Jan-26 07:18N 48°39' W 123°27'0 0.0
2015-Jan-26 06:30N 48°39' W 123°27'0 0.0
2015-Jan-26 02:06N 48°39' W 123°27'0 0.0
2015-Jan-25 21:06N 48°39' W 123°27'0 0.0
2015-Jan-25 20:12N 48°39' W 123°27'0 0.0
2015-Jan-25 19:24N 48°39' W 123°27'0 0.0
2015-Jan-25 18:24N 48°39' W 123°27'0 0.0
2015-Jan-25 17:18N 48°39' W 123°27'0 0.0
2015-Jan-25 16:33N 48°39' W 123°27'7 6.4
2015-Jan-25 15:30N 48°45' W 123°22'7 7.5
2015-Jan-25 14:33N 48°52' W 123°19'8 8.4
2015-Jan-25 13:33N 48°59' W 123°25'9 8.7
2015-Jan-25 12:32N 49°06' W 123°33'8 8.6
2015-Jan-25 11:33N 49°12' W 123°42'8 8.3
2015-Jan-25 10:32N 49°16' W 123°53'8 8.5
2015-Jan-25 09:33N 49°19' W 124°05'9 8.8
2015-Jan-25 08:33N 49°23' W 124°17'8 7.5
2015-Jan-25 07:33N 49°28' W 124°26'7 6.4
2015-Jan-25 06:28N 49°33' W 124°34'7 7.1
2015-Jan-25 05:31N 49°38' W 124°41'7 7.0
2015-Jan-25 04:33N 49°43' W 124°48'80 9.6
2015-Jan-24 20:15N 50°30' W 126°28'15 8.4
2015-Jan-24 18:27N 50°38' W 126°48'1010.6
2015-Jan-24 17:28N 50°43' W 127°02'1410.7
2015-Jan-24 16:11N 50°46' W 127°24'4 0.7
2015-Jan-24 10:22N 50°44' W 127°29'0 0.0
2015-Jan-24 06:07N 50°44' W 127°29'0 0.0
2015-Jan-24 03:31N 50°44' W 127°29'8 8.0
2015-Jan-24 02:33N 50°49' W 127°38'9 9.2
2015-Jan-24 01:33N 50°54' W 127°50'7 6.8
2015-Jan-24 00:33N 51°00' W 127°47'1111.1
2015-Jan-23 23:33N 51°11' W 127°50'10 9.0
2015-Jan-23 22:24N 51°18' W 127°38'1 0.2
2015-Jan-23 17:23N 51°17' W 127°37'0 0.0
2015-Jan-23 13:29N 51°17' W 127°37'0 0.0
2015-Jan-23 12:05N 51°17' W 127°37'0 0.0
2015-Jan-23 09:05N 51°17' W 127°37'0 0.0
2015-Jan-23 08:17N 51°17' W 127°37'0 0.0
2015-Jan-22 22:11N 51°17' W 127°37'  

Dump ship's entire track history